Duluth, Minnesota
Current Conditions -  °F | °C
As of 9:55 PM on Monday 20 Oct 2014 (Local Time) from KDLH Reporting Station
Overcast Overcast  
Wind Chill: 43°   Ceiling: 2600
Heat Index: 46°   Visibility: 10mi
Dew Point: 35°   Wind: 6mph
Humidity: 66%   Direction: 50°NE
Pressure: 30.1"   Gusts: NA
Location:  46.79°N, 92.09°W
Report Text: KDLH 210255Z 05005KT 10SM OVC026 08/02 A3010 RMK AO2 SLP203 T00780017 51011
Loading
Personal Weather Stations






























Interactive Weather Map New forecast layout! Learn more

10-Day Weather Forecast

Advertisements
Track Severe Weather on mobile